This is the latest recevied weather packets stored in our database for station/object KG6QHD-13. If no packets are shown the sender has not sent any weather packets the latest 10 day(s).
| Time | Temp. | Humidity | Pressure | Rain* | Wind** | Luminosity | Snow |
|---|---|---|---|---|---|---|---|
| 1777769449 | 13.33° C | 24% | 1021 hPa | 0 mm | - | 21 W/m² | - |
| 1777768845 | 13.33° C | 24% | 1021 hPa | 0 mm | - | 23 W/m² | - |
| 1777768267 | 13.89° C | 24% | 1021 hPa | 0 mm | - | 25 W/m² | - |
| 1777766147 | 15.56° C | 22% | 1021.2 hPa | 0 mm | - | 341 W/m² | - |
| 1777765844 | 15.56° C | 22% | 1021.2 hPa | 0 mm | - | 360 W/m² | - |
| 1777764356 | 15.56° C | 22% | 1021.4 hPa | 0 mm | - | 448 W/m² | - |
| 1777763761 | 16.11° C | 22% | 1021.5 hPa | 0 mm | - | 476 W/m² | - |
| 1777760449 | 16.11° C | 23% | 1021.6 hPa | 0 mm | - | 657 W/m² | - |
| 1777759253 | 16.11° C | 24% | 1021.7 hPa | 0 mm | - | 703 W/m² | - |
| 1777758349 | 16.11° C | 23% | 1021.9 hPa | 0 mm | - | 749 W/m² | - |
| 1777757466 | 16.11° C | 23% | 1022.2 hPa | 0 mm | - | 752 W/m² | - |
| 1777755045 | 16.67° C | 22% | 1022.8 hPa | 0 mm | - | 902 W/m² | - |
| 1777751748 | 16.11° C | 22% | 1023.2 hPa | 0 mm | - | 932 W/m² | - |
| 1777750848 | 15° C | 20% | 1023.4 hPa | 0 mm | - | 939 W/m² | - |
| 1777750545 | 15.56° C | 21% | 1023.3 hPa | 0 mm | - | 949 W/m² | - |
| 1777750255 | 15° C | 20% | 1023.5 hPa | 0 mm | - | 949 W/m² | - |
| 1777749048 | 14.44° C | 22% | 1023.7 hPa | 0 mm | - | 953 W/m² | - |
| 1777748748 | 14.44° C | 22% | 1023.8 hPa | 0 mm | - | 954 W/m² | - |
| 1777747849 | 14.44° C | 22% | 1023.9 hPa | 0 mm | - | 951 W/m² | - |
| 1777747558 | 14.44° C | 22% | 1024 hPa | 0 mm | - | 951 W/m² | - |
| 1777745754 | 14.44° C | 24% | 1024.2 hPa | 0 mm | - | 935 W/m² | - |
| 1777744550 | 13.89° C | 22% | 1024.3 hPa | 0 mm | - | 912 W/m² | - |
| 1777742448 | 12.78° C | 20% | 1024.6 hPa | 0 mm | - | 863 W/m² | - |
| 1777741848 | 12.78° C | 22% | 1024.7 hPa | 0 mm | - | 849 W/m² | - |
| 1777735852 | 10.56° C | 28% | 1025 hPa | 0 mm | - | 468 W/m² | - |
* Rain latest hour (hover to see other rain measurements)
** Current wind speed in m/s (hover to see current wind gust speed)